createdAt,value
2023-02-22T00:01:47.630Z,3.10
2023-02-22T00:04:21.222Z,3.10
2023-02-22T00:06:50.001Z,3.00
2023-02-22T00:09:20.771Z,3.10
2023-02-22T00:11:49.136Z,3.00
2023-02-22T00:14:20.450Z,3.00
2023-02-22T00:16:48.925Z,3.00
2023-02-22T00:19:18.316Z,3.00
2023-02-22T00:21:47.476Z,3.00
2023-02-22T00:24:23.939Z,3.00
2023-02-22T00:26:52.817Z,3.00
2023-02-22T00:29:20.865Z,2.90
2023-02-22T00:31:48.984Z,3.00
2023-02-22T00:34:18.455Z,3.00
2023-02-22T00:36:47.449Z,3.00
2023-02-22T00:39:15.681Z,3.00
2023-02-22T00:41:44.000Z,3.00
2023-02-22T00:44:12.092Z,3.00
2023-02-22T00:46:40.748Z,3.00
2023-02-22T00:49:08.810Z,3.00
2023-02-22T00:51:38.186Z,3.00
2023-02-22T00:54:06.436Z,3.00
2023-02-22T00:56:35.199Z,3.00
2023-02-22T00:59:03.246Z,3.00
2023-02-22T01:01:31.587Z,3.10
2023-02-22T01:03:59.710Z,3.10
2023-02-22T01:06:27.761Z,3.10
2023-02-22T01:08:57.173Z,3.10
2023-02-22T01:11:25.448Z,3.10
2023-02-22T01:13:54.576Z,3.10
2023-02-22T01:16:22.870Z,3.10
2023-02-22T01:18:50.965Z,3.10
2023-02-22T01:21:19.158Z,3.20
2023-02-22T01:23:47.260Z,3.10
2023-02-22T01:26:17.011Z,3.20
2023-02-22T01:28:45.061Z,3.10
2023-02-22T01:31:13.616Z,3.10
2023-02-22T01:33:41.802Z,3.10
2023-02-22T01:36:11.556Z,3.10
2023-02-22T01:38:39.943Z,3.10
2023-02-22T01:41:07.980Z,3.10
2023-02-22T01:43:39.414Z,3.10
2023-02-22T01:46:08.330Z,3.10
2023-02-22T01:48:40.959Z,3.00
2023-02-22T01:51:11.671Z,3.00
2023-02-22T01:53:43.636Z,3.00
2023-02-22T01:56:11.653Z,3.00
2023-02-22T01:58:44.237Z,3.10
2023-02-22T02:01:12.250Z,3.00
2023-02-22T02:03:41.231Z,3.00
2023-02-22T02:06:11.929Z,3.00
2023-02-22T02:08:47.543Z,2.90
2023-02-22T02:11:15.948Z,2.90
2023-02-22T02:13:45.516Z,2.90
2023-02-22T02:16:14.751Z,2.90
2023-02-22T02:18:42.928Z,2.90
2023-02-22T02:21:40.905Z,2.80
2023-02-22T02:24:39.748Z,2.80
2023-02-22T02:27:11.836Z,2.80
2023-02-22T02:30:26.579Z,2.70
2023-02-22T02:32:58.791Z,2.70
2023-02-22T02:35:34.680Z,2.70
2023-02-22T02:38:05.938Z,2.60
2023-02-22T02:40:36.326Z,2.60
2023-02-22T02:43:07.753Z,2.50
2023-02-22T02:45:39.864Z,2.50
2023-02-22T02:48:10.264Z,2.50
2023-02-22T02:50:39.117Z,2.40
2023-02-22T02:53:07.578Z,2.40
2023-02-22T02:55:36.676Z,2.30
2023-02-22T02:58:05.870Z,2.30
2023-02-22T03:00:39.379Z,2.30
2023-02-22T03:03:16.457Z,2.20
2023-02-22T03:06:03.849Z,2.10
2023-02-22T03:08:33.447Z,2.00
2023-02-22T03:11:06.781Z,2.00
2023-02-22T03:13:37.902Z,2.00
2023-02-22T03:16:12.301Z,1.90
2023-02-22T03:18:46.845Z,1.90
2023-02-22T03:21:18.236Z,1.70
2023-02-22T03:23:48.234Z,1.80
2023-02-22T03:26:24.029Z,1.80
2023-02-22T03:28:55.862Z,1.70
2023-02-22T03:31:26.160Z,1.70
2023-02-22T03:33:56.859Z,1.70
2023-02-22T03:36:26.899Z,1.60
2023-02-22T03:38:55.713Z,1.60
2023-02-22T03:41:25.242Z,1.60
2023-02-22T03:43:55.697Z,1.60
2023-02-22T03:46:23.772Z,1.50
2023-02-22T03:48:54.325Z,1.50
2023-02-22T03:51:24.033Z,1.60
2023-02-22T03:53:56.965Z,1.50
2023-02-22T03:56:35.727Z,1.50
2023-02-22T03:59:04.172Z,1.40
2023-02-22T04:01:32.195Z,1.40
2023-02-22T04:04:00.418Z,1.40
2023-02-22T04:06:30.019Z,1.30
2023-02-22T04:08:59.785Z,1.30
2023-02-22T04:11:28.477Z,1.30
2023-02-22T04:13:57.243Z,1.30
2023-02-22T04:16:25.355Z,1.20
2023-02-22T04:18:53.471Z,1.20
2023-02-22T04:21:21.490Z,1.20
2023-02-22T04:23:52.561Z,1.20
2023-02-22T04:26:21.198Z,1.20
2023-02-22T04:28:54.433Z,1.20
2023-02-22T04:31:25.078Z,1.10
2023-02-22T04:33:55.231Z,1.10
2023-02-22T04:36:28.180Z,1.00
2023-02-22T04:38:57.553Z,1.00
2023-02-22T04:41:25.768Z,1.10
2023-02-22T04:43:54.068Z,1.00
2023-02-22T04:46:24.278Z,1.00
2023-02-22T04:48:53.646Z,0.90
2023-02-22T04:51:24.495Z,0.90
2023-02-22T04:54:09.066Z,0.90
2023-02-22T04:56:39.112Z,0.90
2023-02-22T04:59:07.283Z,0.90
2023-02-22T05:01:35.570Z,0.90
2023-02-22T05:04:04.156Z,0.80
2023-02-22T05:06:32.156Z,0.80
2023-02-22T05:09:00.146Z,0.80
2023-02-22T05:11:29.552Z,0.80
2023-02-22T05:13:57.554Z,0.80
2023-02-22T05:16:25.784Z,0.70
2023-02-22T05:18:53.835Z,0.80
2023-02-22T05:21:21.926Z,0.70
2023-02-22T05:23:49.923Z,0.70
2023-02-22T05:26:18.024Z,0.60
2023-02-22T05:28:47.384Z,0.60
2023-02-22T05:31:15.775Z,0.60
2023-02-22T05:33:43.992Z,0.60
2023-02-22T05:36:12.005Z,0.60
2023-02-22T05:38:43.490Z,0.50
2023-02-22T05:41:12.288Z,0.50
2023-02-22T05:43:40.418Z,0.50
2023-02-22T05:46:09.855Z,0.50
2023-02-22T05:48:37.844Z,0.40
2023-02-22T05:51:06.072Z,0.40
2023-02-22T05:53:34.311Z,0.40
2023-02-22T05:56:02.351Z,0.40
2023-02-22T05:58:30.338Z,0.40
2023-02-22T06:00:58.417Z,0.40
2023-02-22T06:03:27.772Z,0.40
2023-02-22T06:05:55.785Z,0.40
2023-02-22T06:08:23.785Z,0.30
2023-02-22T06:10:51.800Z,0.30
2023-02-22T06:13:19.792Z,0.40
2023-02-22T06:15:47.899Z,0.40
2023-02-22T06:18:15.899Z,0.40
2023-02-22T06:20:45.271Z,0.30
2023-02-22T06:23:13.270Z,0.30
2023-02-22T06:25:41.297Z,0.40
2023-02-22T06:28:09.286Z,0.40
2023-02-22T06:30:37.425Z,0.40
2023-02-22T06:33:05.439Z,0.50
2023-02-22T06:35:33.461Z,0.60
2023-02-22T06:38:02.805Z,0.60
2023-02-22T06:40:30.815Z,0.70
2023-02-22T06:42:59.960Z,0.70
2023-02-22T06:45:28.246Z,0.80
2023-02-22T06:47:56.645Z,0.80
2023-02-22T06:50:25.651Z,0.90
2023-02-22T06:52:53.804Z,1.00
2023-02-22T06:55:24.080Z,1.10
2023-02-22T06:57:52.091Z,1.20
2023-02-22T07:00:21.634Z,1.30
2023-02-22T07:02:49.752Z,1.40
2023-02-22T07:05:18.446Z,1.40
2023-02-22T07:07:46.535Z,1.50
2023-02-22T07:10:18.561Z,1.60
2023-02-22T07:12:48.655Z,1.70
2023-02-22T07:15:18.127Z,1.80
2023-02-22T07:17:46.148Z,1.90
2023-02-22T07:20:14.223Z,2.00
2023-02-22T07:22:42.199Z,2.10
2023-02-22T07:25:11.349Z,2.10
2023-02-22T07:27:39.620Z,2.20
2023-02-22T07:30:09.853Z,2.30
2023-02-22T07:32:37.990Z,2.60
2023-02-22T07:35:06.356Z,2.70
2023-02-22T07:37:34.361Z,2.80
2023-02-22T07:40:02.381Z,2.90
2023-02-22T07:42:30.631Z,3.00
2023-02-22T07:44:58.660Z,3.10
2023-02-22T07:47:28.017Z,3.20
2023-02-22T07:49:56.140Z,3.30
2023-02-22T07:52:24.150Z,3.40
2023-02-22T07:54:52.138Z,3.40
2023-02-22T07:57:20.162Z,3.50
2023-02-22T07:59:49.129Z,3.50
2023-02-22T08:02:17.320Z,3.60
2023-02-22T08:04:46.684Z,3.70
2023-02-22T08:07:14.708Z,3.80
2023-02-22T08:09:42.754Z,3.90
2023-02-22T08:12:10.786Z,4.00
2023-02-22T08:14:38.765Z,4.10
2023-02-22T08:17:08.763Z,4.10
2023-02-22T08:19:36.888Z,4.00
2023-02-22T08:22:06.197Z,4.00
2023-02-22T08:24:34.395Z,4.00
2023-02-22T08:27:02.412Z,4.00
2023-02-22T08:29:33.543Z,4.10
2023-02-22T08:32:01.807Z,4.20
2023-02-22T08:34:29.897Z,4.30
2023-02-22T08:36:57.951Z,4.40
2023-02-22T08:39:27.298Z,4.50
2023-02-22T08:41:55.385Z,4.50
2023-02-22T08:44:24.289Z,4.60
2023-02-22T08:46:52.506Z,4.70
2023-02-22T08:49:20.668Z,4.80
2023-02-22T08:51:48.704Z,4.80
2023-02-22T08:54:18.249Z,5.00
2023-02-22T08:56:47.623Z,5.10
2023-02-22T08:59:15.742Z,5.10
2023-02-22T09:01:43.802Z,5.20
2023-02-22T09:04:11.857Z,5.30
2023-02-22T09:06:41.606Z,5.50
2023-02-22T09:09:09.618Z,5.60
2023-02-22T09:11:37.660Z,5.80
2023-02-22T09:14:07.007Z,5.90
2023-02-22T09:16:38.102Z,6.10
2023-02-22T09:19:06.145Z,6.20
2023-02-22T09:21:34.180Z,6.30
2023-02-22T09:24:08.498Z,6.50
2023-02-22T09:26:39.425Z,6.70
2023-02-22T09:29:10.693Z,6.90
2023-02-22T09:31:39.119Z,7.10
2023-02-22T09:34:13.922Z,7.10
2023-02-22T09:36:42.185Z,7.30
2023-02-22T09:39:11.279Z,7.30
2023-02-22T09:41:41.422Z,7.40
2023-02-22T09:44:17.080Z,7.40
2023-02-22T09:46:46.037Z,7.50
2023-02-22T09:49:22.308Z,7.60
2023-02-22T09:51:52.708Z,7.70
2023-02-22T09:54:23.605Z,7.80
2023-02-22T09:56:52.595Z,7.90
2023-02-22T09:59:24.545Z,8.00
2023-02-22T10:01:57.098Z,8.00
2023-02-22T10:04:30.484Z,8.00
2023-02-22T10:07:06.157Z,8.00
2023-02-22T10:09:37.678Z,8.10
2023-02-22T10:12:09.169Z,8.20
2023-02-22T10:15:06.535Z,8.20
2023-02-22T10:17:36.346Z,8.30
2023-02-22T10:20:19.900Z,8.40
2023-02-22T10:22:57.783Z,8.40
2023-02-22T10:25:26.981Z,8.40
2023-02-22T10:27:57.896Z,8.50
2023-02-22T10:30:30.399Z,8.60
2023-02-22T10:33:00.993Z,8.70
2023-02-22T10:35:30.200Z,8.70
2023-02-22T10:38:00.322Z,8.80
2023-02-22T10:40:33.082Z,8.80
2023-02-22T10:43:04.946Z,8.90
2023-02-22T10:45:35.964Z,9.00
2023-02-22T10:48:08.630Z,9.00
2023-02-22T10:50:38.087Z,9.10
2023-02-22T10:53:06.088Z,9.10
2023-02-22T10:55:34.152Z,9.10
2023-02-22T10:58:04.583Z,9.10
2023-02-22T11:00:37.371Z,9.20
2023-02-22T11:03:06.901Z,9.20
2023-02-22T11:05:36.920Z,9.30
2023-02-22T11:08:23.865Z,9.40
2023-02-22T11:10:52.534Z,9.40
2023-02-22T11:13:25.950Z,9.40
2023-02-22T11:15:55.775Z,9.40
2023-02-22T11:18:28.162Z,9.60
2023-02-22T11:21:07.753Z,9.70
2023-02-22T11:23:35.994Z,9.80
2023-02-22T11:26:08.948Z,9.90
2023-02-22T11:28:38.124Z,9.90
2023-02-22T11:31:17.430Z,10.00
2023-02-22T11:33:52.595Z,10.10
2023-02-22T11:36:38.032Z,10.10
2023-02-22T11:39:06.692Z,10.20
2023-02-22T11:41:35.365Z,10.20
2023-02-22T11:44:22.312Z,10.20
2023-02-22T11:46:51.877Z,10.20
2023-02-22T11:49:20.165Z,10.40
2023-02-22T11:52:01.135Z,10.40
2023-02-22T11:55:02.260Z,10.50
2023-02-22T11:57:37.405Z,10.50
2023-02-22T12:00:16.344Z,10.60
2023-02-22T12:02:57.351Z,10.70
2023-02-22T12:05:31.986Z,10.70
2023-02-22T12:08:19.244Z,10.80
2023-02-22T12:10:57.433Z,10.90
2023-02-22T12:13:32.736Z,10.90
2023-02-22T12:16:03.657Z,11.00
2023-02-22T12:18:35.514Z,11.10
2023-02-22T12:21:05.702Z,11.10
2023-02-22T12:23:37.338Z,11.30
2023-02-22T12:26:06.837Z,11.30
2023-02-22T12:28:36.882Z,11.30
2023-02-22T12:31:15.571Z,11.40
2023-02-22T12:33:50.472Z,11.50
2023-02-22T12:36:20.902Z,11.50
2023-02-22T12:38:52.214Z,11.50
2023-02-22T12:41:23.938Z,11.60
2023-02-22T12:43:54.449Z,11.60
2023-02-22T12:46:23.900Z,11.60
2023-02-22T12:48:55.076Z,11.70
2023-02-22T12:51:28.294Z,11.70
2023-02-22T12:54:01.324Z,11.60
2023-02-22T12:56:33.477Z,11.60
2023-02-22T12:59:04.141Z,11.60
2023-02-22T13:01:35.666Z,11.60
2023-02-22T13:04:19.398Z,11.70
2023-02-22T13:06:53.983Z,11.70
2023-02-22T13:09:50.150Z,11.70
2023-02-22T13:12:19.781Z,11.70
2023-02-22T13:14:56.436Z,11.70
2023-02-22T13:17:27.100Z,11.70
2023-02-22T13:20:00.014Z,11.80
2023-02-22T13:22:30.783Z,11.70
2023-02-22T13:25:02.769Z,11.70
2023-02-22T13:27:34.459Z,11.80
2023-02-22T13:30:02.509Z,11.70
2023-02-22T13:32:38.076Z,11.70
2023-02-22T13:35:35.115Z,11.70
2023-02-22T13:38:26.377Z,11.70
2023-02-22T13:41:12.310Z,11.60
2023-02-22T13:44:22.013Z,11.60
2023-02-22T13:47:09.222Z,11.60
2023-02-22T13:49:43.964Z,11.50
2023-02-22T13:52:14.140Z,11.50
2023-02-22T13:54:42.938Z,11.40
2023-02-22T13:57:22.187Z,11.30
2023-02-22T13:59:50.225Z,11.30
2023-02-22T14:02:56.048Z,11.30
2023-02-22T14:05:37.869Z,11.20
2023-02-22T14:08:07.319Z,11.20
2023-02-22T14:10:40.810Z,11.10
2023-02-22T14:13:09.127Z,11.20
2023-02-22T14:15:37.127Z,11.20
2023-02-22T14:18:05.666Z,11.10
2023-02-22T14:20:35.148Z,11.10
2023-02-22T14:23:29.965Z,10.90
2023-02-22T14:25:58.497Z,11.00
2023-02-22T14:28:39.379Z,11.00
2023-02-22T14:31:08.864Z,10.90
2023-02-22T14:34:15.431Z,10.90
2023-02-22T14:36:52.453Z,10.90
2023-02-22T14:39:25.028Z,10.90
2023-02-22T14:41:55.952Z,10.90
2023-02-22T14:44:29.472Z,10.90
2023-02-22T14:47:02.296Z,10.90
2023-02-22T14:49:31.045Z,10.80
2023-02-22T14:52:03.937Z,10.80
2023-02-22T14:54:34.824Z,10.70
2023-02-22T14:57:14.733Z,10.70
2023-02-22T14:59:57.103Z,10.70
2023-02-22T15:02:26.178Z,10.60
2023-02-22T15:04:54.982Z,10.60
2023-02-22T15:07:27.466Z,10.60
2023-02-22T15:10:17.696Z,10.60
2023-02-22T15:12:52.724Z,10.50
2023-02-22T15:15:26.069Z,10.50
2023-02-22T15:17:55.010Z,10.50
2023-02-22T15:20:25.080Z,10.40
2023-02-22T15:22:53.149Z,10.40
2023-02-22T15:25:27.826Z,10.30
2023-02-22T15:27:56.311Z,10.20
2023-02-22T15:30:26.606Z,10.20
2023-02-22T15:33:04.102Z,10.20
2023-02-22T15:35:33.515Z,10.20
2023-02-22T15:38:02.623Z,10.20
2023-02-22T15:40:34.060Z,10.20
2023-02-22T15:43:02.505Z,10.10
2023-02-22T15:45:32.373Z,10.10
2023-02-22T15:48:00.527Z,10.00
2023-02-22T15:50:29.052Z,10.00
2023-02-22T15:52:59.080Z,10.00
2023-02-22T15:55:28.927Z,10.00
2023-02-22T15:58:01.754Z,9.90
2023-02-22T16:00:36.108Z,9.90
2023-02-22T16:03:04.332Z,9.80
2023-02-22T16:05:38.199Z,9.80
2023-02-22T16:08:15.721Z,9.70
2023-02-22T16:10:47.272Z,9.70
2023-02-22T16:13:31.696Z,9.70
2023-02-22T16:16:02.032Z,9.60
2023-02-22T16:18:32.363Z,9.60
2023-02-22T16:21:05.468Z,9.50
2023-02-22T16:23:35.609Z,9.50
2023-02-22T16:26:20.645Z,9.50
2023-02-22T16:28:52.465Z,9.40
2023-02-22T16:31:25.327Z,9.40
2023-02-22T16:33:54.036Z,9.40
2023-02-22T16:36:23.933Z,9.30
2023-02-22T16:38:51.955Z,9.30
2023-02-22T16:41:20.460Z,9.30
2023-02-22T16:43:51.297Z,9.20
2023-02-22T16:46:20.254Z,9.20
2023-02-22T16:48:48.544Z,9.20
2023-02-22T16:51:21.772Z,9.10
2023-02-22T16:53:50.002Z,9.10
2023-02-22T16:56:20.225Z,9.10
2023-02-22T16:58:50.873Z,9.00
2023-02-22T17:01:19.032Z,9.00
2023-02-22T17:03:47.926Z,9.00
2023-02-22T17:06:16.177Z,8.90
2023-02-22T17:08:45.179Z,8.90
2023-02-22T17:11:13.831Z,8.90
2023-02-22T17:13:41.863Z,8.90
2023-02-22T17:16:13.461Z,8.80
2023-02-22T17:18:41.935Z,8.80
2023-02-22T17:21:10.856Z,8.80
2023-02-22T17:23:38.867Z,8.80
2023-02-22T17:26:07.008Z,8.80
2023-02-22T17:28:35.028Z,8.70
2023-02-22T17:31:03.101Z,8.70
2023-02-22T17:33:34.362Z,8.70
2023-02-22T17:36:02.965Z,8.70
2023-02-22T17:38:31.086Z,8.70
2023-02-22T17:40:59.469Z,8.70
2023-02-22T17:43:28.852Z,8.60
2023-02-22T17:45:56.924Z,8.60
2023-02-22T17:48:25.013Z,8.60
2023-02-22T17:50:54.435Z,8.60
2023-02-22T17:53:24.883Z,8.60
2023-02-22T17:55:53.086Z,8.60
2023-02-22T17:58:21.130Z,8.60
2023-02-22T18:00:50.012Z,8.50
2023-02-22T18:03:21.738Z,8.50
2023-02-22T18:05:50.823Z,8.50
2023-02-22T18:08:20.211Z,8.50
2023-02-22T18:10:48.311Z,8.50
2023-02-22T18:13:18.052Z,8.50
2023-02-22T18:15:46.555Z,8.40
2023-02-22T18:18:17.760Z,8.40
2023-02-22T18:20:46.543Z,8.40
2023-02-22T18:23:15.899Z,8.40
2023-02-22T18:26:03.711Z,8.40
2023-02-22T18:28:36.902Z,8.40
2023-02-22T18:31:08.088Z,8.40
2023-02-22T18:33:36.169Z,8.40
2023-02-22T18:36:04.655Z,8.40
2023-02-22T18:38:32.712Z,8.30
2023-02-22T18:41:02.955Z,8.30
2023-02-22T18:43:31.813Z,8.30
2023-02-22T18:46:06.495Z,8.30
2023-02-22T18:48:34.634Z,8.30
2023-02-22T18:51:02.716Z,8.30
2023-02-22T18:53:30.770Z,8.30
2023-02-22T18:55:59.297Z,8.20
2023-02-22T18:58:28.670Z,8.20
2023-02-22T19:00:56.665Z,8.20
2023-02-22T19:03:24.710Z,8.20
2023-02-22T19:05:54.019Z,8.20
2023-02-22T19:08:22.033Z,8.20
2023-02-22T19:10:50.494Z,8.10
2023-02-22T19:13:19.032Z,8.10
2023-02-22T19:15:48.994Z,8.10
2023-02-22T19:18:17.083Z,8.00
2023-02-22T19:20:46.107Z,8.00
2023-02-22T19:23:14.139Z,8.00
2023-02-22T19:25:42.168Z,8.00
2023-02-22T19:28:10.159Z,8.00
2023-02-22T19:30:38.226Z,7.90
2023-02-22T19:33:07.592Z,7.90
2023-02-22T19:35:36.125Z,7.80
2023-02-22T19:38:04.132Z,7.80
2023-02-22T19:40:32.236Z,7.70
2023-02-22T19:43:00.228Z,7.70
2023-02-22T19:45:28.248Z,7.60
2023-02-22T19:47:56.548Z,7.60
2023-02-22T19:50:25.924Z,7.50
2023-02-22T19:52:55.988Z,7.50
2023-02-22T19:55:24.015Z,7.50
2023-02-22T19:57:52.036Z,7.40
2023-02-22T20:00:24.721Z,7.40
2023-02-22T20:02:58.454Z,7.30
2023-02-22T20:05:27.895Z,7.30
2023-02-22T20:07:55.887Z,7.20
2023-02-22T20:10:23.919Z,7.20
2023-02-22T20:12:51.907Z,7.10
2023-02-22T20:15:21.840Z,7.10
2023-02-22T20:17:50.688Z,7.10
2023-02-22T20:20:18.981Z,7.00
2023-02-22T20:22:48.332Z,7.00
2023-02-22T20:25:16.480Z,6.90
2023-02-22T20:27:44.481Z,6.90
2023-02-22T20:30:18.080Z,6.90
2023-02-22T20:32:46.301Z,6.80
2023-02-22T20:35:16.506Z,6.80
2023-02-22T20:37:44.510Z,6.80
2023-02-22T20:40:13.923Z,6.70
2023-02-22T20:42:41.938Z,6.70
2023-02-22T20:45:12.028Z,6.60
2023-02-22T20:47:40.094Z,6.60
2023-02-22T20:50:08.696Z,6.50
2023-02-22T20:52:36.747Z,6.50
2023-02-22T20:55:06.211Z,6.40
2023-02-22T20:57:35.549Z,6.40
2023-02-22T21:00:03.578Z,6.40
2023-02-22T21:02:31.579Z,6.40
2023-02-22T21:04:59.640Z,6.40
2023-02-22T21:07:27.655Z,6.30
2023-02-22T21:09:55.671Z,6.30
2023-02-22T21:12:24.073Z,6.20
2023-02-22T21:14:53.449Z,6.20
2023-02-22T21:17:28.748Z,6.10
2023-02-22T21:19:56.821Z,6.10
2023-02-22T21:22:25.269Z,6.10
2023-02-22T21:24:53.396Z,6.00
2023-02-22T21:27:21.398Z,6.00
2023-02-22T21:29:49.422Z,6.00
2023-02-22T21:32:18.885Z,5.90
2023-02-22T21:34:46.948Z,5.90
2023-02-22T21:37:18.136Z,5.90
2023-02-22T21:39:47.612Z,5.80
2023-02-22T21:42:15.616Z,5.80
2023-02-22T21:44:43.638Z,5.70
2023-02-22T21:47:11.624Z,5.70
2023-02-22T21:49:40.999Z,5.70
2023-02-22T21:52:09.568Z,5.70
2023-02-22T21:54:37.706Z,5.60
2023-02-22T21:57:06.409Z,5.70
2023-02-22T21:59:34.599Z,5.60
2023-02-22T22:02:02.714Z,5.60
2023-02-22T22:04:34.999Z,5.60
2023-02-22T22:07:04.755Z,5.60
2023-02-22T22:09:37.154Z,5.50
2023-02-22T22:12:05.951Z,5.50
2023-02-22T22:14:34.279Z,5.50
2023-02-22T22:17:03.434Z,5.50
2023-02-22T22:19:31.865Z,5.40
2023-02-22T22:21:59.873Z,5.40
2023-02-22T22:24:30.906Z,5.40
2023-02-22T22:27:03.624Z,5.40
2023-02-22T22:29:34.344Z,5.40
2023-02-22T22:32:02.774Z,5.40
2023-02-22T22:34:30.884Z,5.40
2023-02-22T22:36:59.090Z,5.30
2023-02-22T22:39:27.252Z,5.30
2023-02-22T22:41:57.045Z,5.30
2023-02-22T22:44:29.939Z,5.30
2023-02-22T22:46:57.926Z,5.30
2023-02-22T22:49:28.424Z,5.30
2023-02-22T22:51:56.438Z,5.30
2023-02-22T22:54:24.450Z,5.30
2023-02-22T22:56:52.629Z,5.20
2023-02-22T22:59:21.998Z,5.20
2023-02-22T23:01:52.184Z,5.20
2023-02-22T23:04:21.523Z,5.20
2023-02-22T23:06:50.712Z,5.20
2023-02-22T23:09:21.800Z,5.20
2023-02-22T23:11:51.074Z,5.10
2023-02-22T23:14:21.484Z,5.20
2023-02-22T23:16:50.070Z,5.20
2023-02-22T23:19:19.373Z,5.10
2023-02-22T23:21:47.746Z,5.10
2023-02-22T23:24:16.330Z,5.10
2023-02-22T23:26:48.370Z,5.00
2023-02-22T23:29:16.614Z,5.10
2023-02-22T23:31:48.308Z,5.10
2023-02-22T23:34:17.029Z,5.10
2023-02-22T23:36:45.185Z,5.00
2023-02-22T23:39:14.178Z,5.00
2023-02-22T23:41:42.521Z,5.00
2023-02-22T23:44:14.002Z,5.00
2023-02-22T23:46:42.058Z,4.90
2023-02-22T23:49:11.458Z,5.00
2023-02-22T23:51:40.088Z,5.00
2023-02-22T23:54:08.251Z,4.90
2023-02-22T23:56:36.989Z,4.80
2023-02-22T23:59:10.812Z,4.90
